Time;durP1;ratioP1;P1;durP2;ratioP2;P2;SDS_P1;SDS_P2;PMS_P1;PMS_P2;Temp;Humidity;BMP_temperature;BMP_pressure;BME280_temperature;BME280_humidity;BME280_pressure;Samples;Min_cycle;Max_cycle;Signal;HPM_P1;HPM_P2
2023/09/22 00:00:10;;;;;;;11.73;8.02;;;19.90;62.70;;;;;;5018220;28;20453;-58
2023/09/22 00:02:36;;;;;;;21.70;8.63;;;19.90;62.70;;;;;;5017957;28;20021;-58
2023/09/22 00:05:01;;;;;;;9.25;7.10;;;19.90;62.70;;;;;;5018012;28;20089;-58
2023/09/22 00:07:27;;;;;;;13.98;7.90;;;19.90;62.70;;;;;;5018093;28;20049;-58
2023/09/22 00:09:53;;;;;;;12.05;7.88;;;19.90;62.70;;;;;;5017822;28;20076;-58
2023/09/22 00:12:18;;;;;;;12.55;7.00;;;19.90;62.70;;;;;;5016822;28;20104;-58
2023/09/22 00:14:45;;;;;;;12.60;7.65;;;19.90;62.60;;;;;;5017825;28;20034;-57
2023/09/22 00:17:10;;;;;;;13.82;7.32;;;19.90;62.70;;;;;;5018249;28;20104;-57
2023/09/22 00:19:36;;;;;;;8.57;6.30;;;19.90;62.80;;;;;;5017570;28;20478;-57
2023/09/22 00:22:02;;;;;;;8.80;6.45;;;19.80;62.90;;;;;;5018009;28;20068;-58
2023/09/22 00:24:28;;;;;;;12.38;6.47;;;19.80;63.10;;;;;;5018017;28;20029;-58
2023/09/22 00:26:54;;;;;;;11.15;6.78;;;19.90;63.30;;;;;;5018563;28;20026;-58
2023/09/22 00:29:20;;;;;;;11.20;6.18;;;19.80;63.40;;;;;;5017661;28;20038;-58
2023/09/22 00:31:46;;;;;;;10.07;6.80;;;19.80;63.50;;;;;;5017669;28;20068;-56
2023/09/22 00:34:12;;;;;;;10.50;7.05;;;19.80;63.80;;;;;;5017948;28;20461;-58
2023/09/22 00:36:37;;;;;;;9.07;6.65;;;19.80;64.60;;;;;;5018002;28;20120;-58
2023/09/22 00:39:04;;;;;;;11.80;7.03;;;19.80;64.10;;;;;;5017924;28;20086;-58
2023/09/22 00:41:30;;;;;;;14.15;7.03;;;19.80;64.10;;;;;;5017717;28;20026;-58
2023/09/22 00:43:55;;;;;;;10.00;6.88;;;19.80;64.30;;;;;;5018782;28;20022;-59
2023/09/22 00:46:26;;;;;;;8.20;6.80;;;19.80;64.50;;;;;;5017885;28;20026;-58
2023/09/22 00:48:53;;;;;;;11.00;6.88;;;19.80;64.70;;;;;;5017099;28;20501;-58
2023/09/22 00:51:19;;;;;;;9.90;6.53;;;19.70;64.90;;;;;;5017584;28;20061;-58
2023/09/22 00:53:49;;;;;;;10.60;7.38;;;19.70;65.20;;;;;;5017586;28;20055;-57
2023/09/22 00:56:19;;;;;;;7.95;5.95;;;19.70;65.30;;;;;;5016674;28;20041;-57
2023/09/22 00:58:45;;;;;;;8.40;6.20;;;19.70;65.30;;;;;;5017449;28;20123;-58
2023/09/22 01:01:11;;;;;;;9.85;6.60;;;19.70;65.30;;;;;;5016980;28;20034;-57
2023/09/22 01:03:37;;;;;;;10.85;7.13;;;19.60;65.20;;;;;;5016778;28;20414;-58
2023/09/22 01:06:03;;;;;;;8.45;6.45;;;19.60;65.00;;;;;;5016821;28;20430;-58
2023/09/22 01:08:28;;;;;;;11.35;7.05;;;19.60;65.00;;;;;;5017210;28;20042;-58
2023/09/22 01:10:54;;;;;;;9.60;7.00;;;19.60;64.90;;;;;;5017085;28;20490;-58
2023/09/22 01:13:20;;;;;;;11.23;7.22;;;19.50;64.80;;;;;;5016775;28;20030;-58
2023/09/22 01:15:46;;;;;;;9.52;7.13;;;19.50;64.70;;;;;;5016784;28;20022;-57
2023/09/22 01:18:14;;;;;;;9.75;7.03;;;19.50;64.70;;;;;;5016211;28;20022;-58
2023/09/22 01:20:42;;;;;;;12.70;7.28;;;19.50;64.70;;;;;;5017138;28;20022;-57
2023/09/22 01:23:08;;;;;;;9.98;7.15;;;19.50;64.60;;;;;;5016507;28;20089;-57
2023/09/22 01:25:34;;;;;;;13.15;7.15;;;19.40;64.60;;;;;;5016190;28;20037;-57
2023/09/22 01:28:00;;;;;;;11.43;7.10;;;19.40;64.60;;;;;;5016476;28;20025;-58
2023/09/22 01:30:26;;;;;;;9.77;6.95;;;19.40;64.70;;;;;;4998389;28;20430;-58
2023/09/22 01:32:51;;;;;;;9.60;7.18;;;19.30;64.60;;;;;;5016201;28;20045;-58
2023/09/22 01:35:17;;;;;;;13.00;7.60;;;19.30;64.70;;;;;;5015417;28;20064;-58
2023/09/22 01:37:52;;;;;;;10.63;7.30;;;19.20;64.60;;;;;;5016617;28;20026;-57
2023/09/22 01:40:17;;;;;;;11.07;7.90;;;19.20;64.60;;;;;;5015974;28;20037;-58
2023/09/22 01:42:43;;;;;;;15.32;8.30;;;19.20;65.00;;;;;;5014790;28;20422;-57
2023/09/22 01:45:10;;;;;;;11.50;7.68;;;19.10;65.40;;;;;;5015578;28;20504;-58
2023/09/22 01:47:36;;;;;;;12.98;7.93;;;19.10;65.50;;;;;;5016203;28;20050;-58
2023/09/22 01:50:03;;;;;;;13.05;8.05;;;19.10;65.40;;;;;;5016694;28;20463;-58
2023/09/22 01:52:29;;;;;;;9.07;7.45;;;19.00;65.40;;;;;;5016437;28;20073;-58
2023/09/22 01:54:55;;;;;;;9.50;7.85;;;19.00;65.30;;;;;;5014408;28;20034;-57
2023/09/22 01:57:21;;;;;;;11.82;7.57;;;19.00;65.40;;;;;;5015691;28;20520;-58
2023/09/22 01:59:46;;;;;;;8.98;6.97;;;19.00;65.40;;;;;;5015773;28;20097;-57
2023/09/22 02:02:13;;;;;;;11.75;7.43;;;19.00;65.40;;;;;;5016252;28;20469;-57
2023/09/22 02:04:39;;;;;;;11.45;7.32;;;19.00;65.40;;;;;;5016684;28;20022;-58
2023/09/22 02:07:05;;;;;;;10.35;6.80;;;19.00;65.40;;;;;;5015639;28;20033;-58
2023/09/22 02:09:30;;;;;;;10.05;7.78;;;19.00;65.40;;;;;;5016198;28;20029;-58
2023/09/22 02:11:56;;;;;;;11.43;7.90;;;19.00;65.40;;;;;;5016202;28;20034;-58
2023/09/22 02:14:22;;;;;;;8.55;7.65;;;19.00;65.40;;;;;;5015896;28;20034;-57
2023/09/22 02:16:48;;;;;;;13.50;7.80;;;19.00;65.40;;;;;;5015387;28;20032;-57
2023/09/22 02:19:14;;;;;;;16.73;7.15;;;18.90;65.40;;;;;;5015548;28;20121;-58
2023/09/22 02:21:40;;;;;;;10.55;7.30;;;18.90;65.40;;;;;;5015996;28;20508;-58
2023/09/22 02:24:06;;;;;;;13.05;7.13;;;18.90;65.50;;;;;;5016157;28;20470;-58
2023/09/22 02:26:32;;;;;;;12.30;8.00;;;18.90;65.60;;;;;;5015132;28;20033;-58
2023/09/22 02:28:57;;;;;;;9.50;6.60;;;18.80;65.70;;;;;;5015730;28;20028;-58
2023/09/22 02:31:24;;;;;;;12.98;7.10;;;18.90;66.30;;;;;;5016125;28;20066;-58
2023/09/22 02:33:49;;;;;;;11.20;7.00;;;18.90;65.80;;;;;;5016312;28;20466;-58
2023/09/22 02:36:18;;;;;;;12.52;6.82;;;18.90;65.70;;;;;;5019551;28;20045;-56
2023/09/22 02:38:44;;;;;;;11.63;6.60;;;18.90;65.70;;;;;;5019994;28;20363;-59
2023/09/22 02:41:11;;;;;;;12.15;6.90;;;19.00;65.70;;;;;;5019707;28;20018;-58
2023/09/22 02:43:38;;;;;;;9.13;6.57;;;19.00;65.50;;;;;;5020029;28;20470;-57
2023/09/22 02:46:03;;;;;;;9.43;6.95;;;19.00;65.70;;;;;;5020060;28;20489;-58
2023/09/22 02:48:29;;;;;;;11.23;6.93;;;19.10;65.70;;;;;;5019469;28;20045;-58
2023/09/22 02:50:55;;;;;;;10.07;6.45;;;19.10;65.70;;;;;;5019958;28;20412;-58
2023/09/22 02:53:21;;;;;;;10.23;7.32;;;19.10;65.50;;;;;;5019245;28;20026;-58
2023/09/22 02:55:46;;;;;;;10.25;6.80;;;19.20;65.60;;;;;;5019431;28;20040;-58
2023/09/22 02:58:12;;;;;;;8.77;6.75;;;19.20;65.60;;;;;;5019341;28;20049;-58
2023/09/22 03:00:43;;;;;;;11.10;7.18;;;19.20;65.50;;;;;;5019199;28;20026;-58
2023/09/22 03:03:10;;;;;;;12.43;6.70;;;19.20;65.40;;;;;;5020190;28;20109;-57
2023/09/22 03:05:36;;;;;;;10.52;6.68;;;19.30;65.40;;;;;;5019690;28;20030;-58
2023/09/22 03:08:04;;;;;;;10.60;6.63;;;19.30;65.20;;;;;;5019398;28;20086;-58
2023/09/22 03:10:33;;;;;;;10.20;6.60;;;19.30;65.10;;;;;;5019364;28;20101;-58
2023/09/22 03:12:59;;;;;;;13.50;6.78;;;19.30;65.10;;;;;;5018852;28;20022;-58
2023/09/22 03:15:25;;;;;;;10.57;6.82;;;19.40;65.30;;;;;;5018984;28;20144;-56
2023/09/22 03:17:51;;;;;;;9.63;6.60;;;19.30;64.90;;;;;;5018616;28;20022;-58
2023/09/22 03:20:17;;;;;;;10.32;6.85;;;19.40;64.90;;;;;;5019154;28;20036;-57
2023/09/22 03:22:43;;;;;;;11.48;7.30;;;19.40;64.90;;;;;;5018570;28;20021;-57
2023/09/22 03:25:10;;;;;;;11.60;7.53;;;19.40;64.90;;;;;;5017553;28;20038;-57
2023/09/22 03:27:36;;;;;;;11.80;7.90;;;19.40;65.00;;;;;;5019030;28;20034;-58
2023/09/22 03:30:07;;;;;;;14.00;8.70;;;19.50;65.10;;;;;;5018995;28;20026;-58
2023/09/22 03:32:33;;;;;;;15.82;8.90;;;19.50;65.10;;;;;;5019114;28;20022;-58
2023/09/22 03:34:59;;;;;;;17.95;11.02;;;19.50;65.20;;;;;;5018751;28;20034;-58
2023/09/22 03:37:29;;;;;;;14.23;10.20;;;19.50;65.30;;;;;;5018949;28;20434;-58
2023/09/22 03:39:58;;;;;;;14.15;8.57;;;19.50;65.20;;;;;;5018596;28;20053;-57
2023/09/22 03:42:25;;;;;;;18.67;11.05;;;19.50;65.30;;;;;;5018672;28;20117;-58
2023/09/22 03:44:50;;;;;;;14.23;10.20;;;19.50;65.40;;;;;;5018523;28;20021;-58
2023/09/22 03:47:16;;;;;;;20.08;10.98;;;19.50;65.40;;;;;;5019082;28;20036;-57
2023/09/22 03:49:42;;;;;;;21.60;13.73;;;19.50;65.40;;;;;;5017989;28;20034;-58
2023/09/22 03:52:07;;;;;;;21.42;11.73;;;19.50;65.40;;;;;;5017943;28;20053;-58
2023/09/22 03:54:33;;;;;;;16.50;11.73;;;19.50;65.50;;;;;;5017881;28;20029;-57
2023/09/22 03:57:00;;;;;;;19.70;12.45;;;19.50;65.50;;;;;;5017017;28;20185;-58
2023/09/22 03:59:26;;;;;;;23.98;14.98;;;19.50;65.50;;;;;;5018625;28;20034;-58
2023/09/22 04:01:51;;;;;;;20.27;13.88;;;19.50;65.60;;;;;;5018929;28;20110;-58
2023/09/22 04:04:17;;;;;;;21.50;15.32;;;19.50;65.60;;;;;;5019080;28;20025;-58
2023/09/22 04:06:43;;;;;;;30.05;16.70;;;19.50;65.60;;;;;;5018782;28;20037;-58
2023/09/22 04:09:08;;;;;;;25.95;14.88;;;19.60;65.80;;;;;;5017972;28;20038;-56
2023/09/22 04:11:34;;;;;;;20.30;12.77;;;19.60;65.70;;;;;;5018838;28;20034;-58
2023/09/22 04:14:01;;;;;;;19.60;12.70;;;19.70;65.80;;;;;;5018677;28;20021;-58
2023/09/22 04:16:27;;;;;;;17.52;12.15;;;19.70;65.70;;;;;;5018277;28;20401;-56
2023/09/22 04:18:54;;;;;;;17.33;11.30;;;19.70;66.20;;;;;;5018041;28;20022;-58
2023/09/22 04:21:23;;;;;;;16.27;9.52;;;19.80;66.10;;;;;;5018724;28;20029;-57
2023/09/22 04:23:58;;;;;;;11.52;8.57;;;19.80;65.90;;;;;;5017798;28;20482;-58
2023/09/22 04:26:29;;;;;;;11.05;8.30;;;19.90;66.30;;;;;;5017409;28;20033;-58
2023/09/22 04:28:59;;;;;;;12.77;8.00;;;19.90;66.80;;;;;;5015066;28;20045;-60
2023/09/22 04:31:25;;;;;;;12.30;7.83;;;19.90;67.30;;;;;;5013761;28;20504;-60
2023/09/22 04:33:52;;;;;;;10.05;8.20;;;19.90;67.20;;;;;;5013189;28;20032;-60
2023/09/22 04:36:21;;;;;;;12.35;8.13;;;19.90;67.30;;;;;;5012993;28;20509;-59
2023/09/22 04:38:48;;;;;;;9.23;7.63;;;19.90;67.80;;;;;;5014007;28;20029;-58
2023/09/22 04:41:14;;;;;;;10.45;7.88;;;19.90;67.50;;;;;;5013796;28;20029;-60
2023/09/22 04:43:40;;;;;;;11.27;7.32;;;19.90;67.80;;;;;;5013767;28;20386;-60
2023/09/22 04:46:06;;;;;;;10.65;7.20;;;19.90;67.90;;;;;;5013182;28;20026;-60
2023/09/22 04:48:31;;;;;;;9.45;6.72;;;20.00;67.90;;;;;;5013396;28;20033;-60
2023/09/22 04:50:58;;;;;;;8.27;6.20;;;19.90;67.90;;;;;;5013408;28;20442;-60
2023/09/22 04:53:24;;;;;;;9.98;6.97;;;20.00;68.00;;;;;;5013386;28;20034;-60
2023/09/22 04:56:08;;;;;;;8.52;6.50;;;20.00;68.10;;;;;;5013568;28;20030;-60
2023/09/22 04:58:34;;;;;;;11.55;6.72;;;20.10;68.10;;;;;;5012514;28;20525;-59
2023/09/22 05:01:01;;;;;;;9.10;6.20;;;20.10;68.00;;;;;;5013129;28;20029;-60
2023/09/22 05:03:30;;;;;;;9.18;6.88;;;20.20;67.90;;;;;;5012599;28;20029;-60
2023/09/22 05:06:06;;;;;;;11.07;6.30;;;20.20;67.90;;;;;;5011792;28;20110;-59
2023/09/22 05:08:33;;;;;;;9.05;6.03;;;20.20;68.00;;;;;;5002890;28;20126;-60
2023/09/22 05:11:03;;;;;;;9.90;6.43;;;20.30;68.30;;;;;;5012936;28;20025;-59
2023/09/22 05:13:29;;;;;;;11.13;6.72;;;20.30;68.40;;;;;;5013017;28;20425;-59
2023/09/22 05:15:54;;;;;;;10.32;6.45;;;20.40;68.60;;;;;;5013291;28;20049;-59
2023/09/22 05:18:20;;;;;;;7.60;6.25;;;20.50;69.20;;;;;;5004026;28;20030;-60
2023/09/22 05:20:45;;;;;;;10.55;6.05;;;20.50;68.80;;;;;;5013146;28;20046;-59
2023/09/22 05:23:11;;;;;;;7.82;5.93;;;20.60;69.10;;;;;;5011603;28;20048;-58
2023/09/22 05:25:40;;;;;;;10.88;6.00;;;20.70;69.40;;;;;;5011554;28;20022;-60
2023/09/22 05:28:08;;;;;;;8.80;5.78;;;20.70;69.60;;;;;;5012148;28;20076;-59
2023/09/22 05:30:38;;;;;;;9.70;6.18;;;20.80;69.80;;;;;;5012926;28;20018;-58
2023/09/22 05:33:07;;;;;;;6.57;5.35;;;20.80;69.30;;;;;;5011554;28;20030;-58
2023/09/22 05:35:37;;;;;;;6.68;5.45;;;20.80;68.70;;;;;;5006651;28;20025;-58
2023/09/22 05:38:03;;;;;;;9.05;5.93;;;20.80;68.20;;;;;;5012812;28;20030;-58
2023/09/22 05:40:32;;;;;;;6.93;5.55;;;20.90;67.80;;;;;;5013029;28;20030;-59
2023/09/22 05:42:58;;;;;;;12.10;5.95;;;20.90;67.50;;;;;;5013495;28;20708;-60
2023/09/22 05:45:23;;;;;;;7.28;5.68;;;20.90;66.90;;;;;;5013519;28;20074;-60
2023/09/22 05:47:49;;;;;;;9.45;5.65;;;21.00;66.70;;;;;;5015504;28;20026;-58
2023/09/22 05:50:16;;;;;;;7.63;5.75;;;21.00;66.60;;;;;;5013375;28;20033;-58
2023/09/22 05:52:42;;;;;;;9.60;6.00;;;21.00;67.10;;;;;;5012803;28;20034;-59
2023/09/22 05:55:08;;;;;;;9.48;5.95;;;21.10;68.10;;;;;;5012810;28;20518;-57
2023/09/22 05:57:34;;;;;;;7.97;5.63;;;21.20;68.90;;;;;;5013604;28;20048;-60
2023/09/22 06:00:00;;;;;;;8.05;6.20;;;21.20;69.60;;;;;;5015190;28;20026;-59
2023/09/22 06:02:26;;;;;;;11.73;6.15;;;21.40;70.10;;;;;;5014184;28;20501;-60
2023/09/22 06:04:55;;;;;;;9.32;5.45;;;21.80;69.70;;;;;;5014707;28;20018;-60
2023/09/22 06:07:22;;;;;;;9.10;6.00;;;22.30;68.80;;;;;;5014758;28;20037;-60
2023/09/22 06:09:48;;;;;;;7.88;5.22;;;22.70;67.80;;;;;;5017009;28;20398;-60
2023/09/22 06:12:14;;;;;;;8.45;5.30;;;22.90;67.30;;;;;;5019343;28;20026;-60
2023/09/22 06:14:39;;;;;;;7.30;5.90;;;23.00;67.30;;;;;;5019230;28;20549;-60
2023/09/22 06:17:05;;;;;;;11.15;5.68;;;22.90;67.20;;;;;;5019508;28;20026;-60
2023/09/22 06:19:31;;;;;;;8.10;5.75;;;22.90;67.50;;;;;;5019061;28;20113;-59
2023/09/22 06:21:57;;;;;;;8.63;6.10;;;22.80;68.10;;;;;;5020048;28;20080;-60
2023/09/22 06:24:24;;;;;;;7.70;5.80;;;22.70;68.30;;;;;;5020196;28;20096;-60
2023/09/22 06:26:50;;;;;;;10.90;6.03;;;22.60;68.60;;;;;;5018183;28;20022;-61
2023/09/22 06:29:17;;;;;;;6.28;5.63;;;22.50;68.50;;;;;;5019953;28;20117;-59
2023/09/22 06:31:43;;;;;;;6.45;5.72;;;22.40;68.50;;;;;;5018550;28;20026;-60
2023/09/22 06:34:09;;;;;;;8.43;5.63;;;22.30;68.40;;;;;;5019419;28;20105;-60
2023/09/22 06:36:35;;;;;;;7.22;5.80;;;22.30;68.80;;;;;;5006845;28;20438;-61
2023/09/22 06:39:07;;;;;;;7.28;6.10;;;22.30;69.10;;;;;;5005608;28;20061;-60
2023/09/22 06:41:33;;;;;;;8.25;5.80;;;22.20;69.00;;;;;;5011726;28;20014;-58
2023/09/22 06:43:59;;;;;;;8.35;5.90;;;22.20;68.90;;;;;;5006704;28;20446;-60
2023/09/22 06:46:25;;;;;;;8.85;6.05;;;22.20;69.10;;;;;;5002685;28;20023;-58
2023/09/22 06:48:50;;;;;;;9.15;6.53;;;22.20;69.20;;;;;;4990566;28;20494;-59
2023/09/22 06:51:19;;;;;;;13.48;6.40;;;22.20;69.70;;;;;;5005077;28;20053;-59
2023/09/22 06:53:46;;;;;;;10.27;7.18;;;22.20;70.70;;;;;;5011301;28;20431;-59
2023/09/22 06:56:11;;;;;;;12.32;6.90;;;22.20;72.20;;;;;;4996983;28;20034;-58
2023/09/22 06:58:40;;;;;;;10.85;8.00;;;22.30;73.20;;;;;;4999157;28;20042;-59
2023/09/22 07:01:14;;;;;;;13.90;11.88;;;22.30;73.90;;;;;;4999292;28;20454;-60
2023/09/22 07:03:41;;;;;;;13.75;12.32;;;22.30;74.80;;;;;;4999203;28;20489;-59
2023/09/22 07:06:10;;;;;;;15.88;12.52;;;22.30;75.50;;;;;;4998828;28;20026;-59
2023/09/22 07:08:36;;;;;;;18.60;13.55;;;22.30;76.60;;;;;;4994739;28;20097;-57
2023/09/22 07:11:10;;;;;;;18.25;14.95;;;22.20;78.10;;;;;;4992690;28;20077;-57
2023/09/22 07:13:36;;;;;;;15.70;12.73;;;22.20;78.10;;;;;;4996731;28;20034;-59
2023/09/22 07:16:02;;;;;;;14.30;12.63;;;22.20;79.20;;;;;;4988686;28;20545;-59
2023/09/22 07:18:28;;;;;;;16.10;12.63;;;22.10;78.50;;;;;;4996079;28;20038;-60
2023/09/22 07:20:54;;;;;;;13.93;12.02;;;22.00;78.50;;;;;;4995528;28;20033;-57
2023/09/22 07:23:21;;;;;;;15.98;11.95;;;22.00;78.60;;;;;;5005109;28;20062;-57
2023/09/22 07:26:06;;;;;;;14.25;11.80;;;22.00;78.40;;;;;;5000653;28;20038;-59
2023/09/22 07:28:34;;;;;;;12.45;10.45;;;21.90;78.30;;;;;;4994666;28;20533;-59
2023/09/22 07:30:59;;;;;;;13.35;10.93;;;22.00;78.20;;;;;;4996396;28;20038;-57
2023/09/22 07:33:32;;;;;;;12.20;10.10;;;21.90;78.30;;;;;;4995257;28;20136;-59
2023/09/22 07:35:58;;;;;;;13.30;9.95;;;21.90;78.20;;;;;;4994259;28;20101;-59
2023/09/22 07:38:25;;;;;;;12.00;10.63;;;21.90;77.80;;;;;;4997839;28;20512;-58
2023/09/22 07:40:51;;;;;;;11.70;9.68;;;21.90;77.90;;;;;;5010021;28;20023;-57
2023/09/22 07:43:16;;;;;;;13.00;9.35;;;21.90;77.10;;;;;;4992642;28;20030;-59
2023/09/22 07:45:42;;;;;;;11.85;9.57;;;21.90;76.90;;;;;;4993668;28;20033;-58
2023/09/22 07:48:08;;;;;;;12.50;10.25;;;21.90;77.00;;;;;;4991584;28;20113;-57
2023/09/22 07:50:36;;;;;;;12.45;9.50;;;22.00;76.80;;;;;;4997333;28;20018;-58
2023/09/22 07:53:03;;;;;;;13.52;9.98;;;22.00;77.00;;;;;;4989139;28;20069;-59
2023/09/22 07:55:30;;;;;;;10.85;8.85;;;22.00;76.90;;;;;;4993690;28;20109;-59
2023/09/22 07:57:55;;;;;;;12.93;9.20;;;22.00;75.90;;;;;;5003780;28;20034;-59
2023/09/22 08:00:22;;;;;;;10.55;8.98;;;22.00;75.60;;;;;;5010238;28;20053;-59
2023/09/22 08:02:49;;;;;;;11.40;9.32;;;22.00;75.00;;;;;;5009269;28;20343;-57
2023/09/22 08:05:15;;;;;;;11.73;8.93;;;22.00;75.00;;;;;;5006504;28;20502;-59
2023/09/22 08:07:45;;;;;;;11.00;9.27;;;22.00;74.10;;;;;;5008743;28;20945;-59
2023/09/22 08:10:11;;;;;;;13.95;9.55;;;22.00;73.40;;;;;;5006984;28;20064;-59
2023/09/22 08:12:42;;;;;;;12.38;8.35;;;22.00;73.70;;;;;;5010830;28;20041;-60
2023/09/22 08:15:08;;;;;;;9.52;8.40;;;22.10;73.10;;;;;;5010003;28;20091;-59
2023/09/22 08:17:35;;;;;;;12.48;8.38;;;22.10;73.40;;;;;;5014257;28;20048;-58
2023/09/22 08:20:01;;;;;;;13.32;8.73;;;22.10;73.60;;;;;;5012683;28;20478;-58
2023/09/22 08:22:27;;;;;;;11.82;8.82;;;22.10;73.10;;;;;;5010491;28;20025;-57
2023/09/22 08:24:53;;;;;;;9.70;8.10;;;22.20;73.10;;;;;;5013036;28;20114;-58
2023/09/22 08:27:19;;;;;;;11.88;8.73;;;22.20;72.90;;;;;;5013131;28;20022;-59
2023/09/22 08:29:48;;;;;;;10.43;8.23;;;22.20;72.80;;;;;;5020422;28;20033;-58
2023/09/22 08:32:13;;;;;;;11.02;7.97;;;22.20;72.20;;;;;;5013930;28;20104;-59
2023/09/22 08:34:40;;;;;;;10.27;8.48;;;22.30;72.00;;;;;;5008929;28;20030;-59
2023/09/22 08:37:06;;;;;;;11.30;7.90;;;22.30;71.50;;;;;;5010109;28;20034;-59
2023/09/22 08:39:32;;;;;;;9.90;8.23;;;22.30;70.80;;;;;;5009766;28;20030;-59
2023/09/22 08:42:01;;;;;;;8.35;7.50;;;22.30;71.00;;;;;;5011593;28;20505;-58
2023/09/22 08:44:27;;;;;;;9.68;8.20;;;22.40;70.50;;;;;;5008392;28;20030;-60
2023/09/22 08:46:53;;;;;;;7.95;7.15;;;22.40;70.40;;;;;;5009791;28;20433;-60
2023/09/22 08:49:21;;;;;;;9.93;7.55;;;22.40;70.10;;;;;;5015346;28;20037;-59
2023/09/22 08:51:50;;;;;;;8.52;7.70;;;22.40;69.50;;;;;;5013475;28;20034;-59
2023/09/22 08:54:16;;;;;;;9.00;7.82;;;22.50;69.30;;;;;;5007507;28;20042;-58
2023/09/22 08:56:41;;;;;;;10.32;8.20;;;22.50;69.60;;;;;;5010367;28;20500;-58
2023/09/22 08:59:10;;;;;;;9.98;8.98;;;22.50;69.90;;;;;;5007547;28;20077;-59
2023/09/22 09:01:36;;;;;;;9.48;8.57;;;22.50;69.90;;;;;;5009862;28;20030;-58
2023/09/22 09:04:39;;;;;;;10.43;8.48;;;22.50;69.70;;;;;;5009097;28;20367;-58
2023/09/22 09:07:06;;;;;;;9.82;8.30;;;22.60;69.40;;;;;;5006963;28;20050;-59
2023/09/22 09:09:43;;;;;;;10.02;7.90;;;22.60;69.80;;;;;;5012427;28;20437;-58
2023/09/22 09:12:09;;;;;;;8.82;7.93;;;22.60;68.70;;;;;;5011794;28;20551;-57
2023/09/22 09:14:38;;;;;;;8.77;7.88;;;22.60;68.60;;;;;;5006111;28;20038;-57
2023/09/22 09:17:23;;;;;;;7.65;6.65;;;22.60;67.80;;;;;;5005969;28;20025;-60
2023/09/22 09:19:56;;;;;;;9.18;6.88;;;22.70;66.50;;;;;;4998050;28;20037;-57
2023/09/22 09:22:30;;;;;;;7.88;7.07;;;22.70;66.30;;;;;;5003173;28;20518;-58
2023/09/22 09:24:59;;;;;;;8.55;6.80;;;22.70;66.20;;;;;;5002237;28;20040;-57
2023/09/22 09:27:26;;;;;;;8.70;7.25;;;22.70;66.00;;;;;;5009071;28;20034;-58
2023/09/22 09:29:53;;;;;;;8.35;7.53;;;22.70;66.20;;;;;;5009601;28;20451;-57
2023/09/22 09:32:24;;;;;;;9.20;8.20;;;22.70;65.70;;;;;;5008597;28;20044;-58
2023/09/22 09:34:50;;;;;;;8.70;7.90;;;22.80;66.10;;;;;;5008136;28;20022;-58
2023/09/22 09:37:16;;;;;;;8.73;7.70;;;22.70;66.30;;;;;;5008186;28;20096;-60
2023/09/22 09:39:53;;;;;;;7.88;7.15;;;22.70;65.70;;;;;;5005254;28;20040;-59
2023/09/22 09:42:22;;;;;;;10.60;6.75;;;22.70;66.00;;;;;;5009948;28;20409;-59
2023/09/22 09:44:52;;;;;;;7.70;6.75;;;22.70;65.90;;;;;;5012572;28;20030;-59
2023/09/22 09:47:25;;;;;;;6.32;5.72;;;22.70;65.70;;;;;;5012971;28;20026;-59
2023/09/22 09:49:55;;;;;;;7.50;6.32;;;22.70;64.90;;;;;;5004201;28;20033;-60
2023/09/22 09:52:35;;;;;;;11.05;7.70;;;22.70;65.30;;;;;;5005041;28;20392;-59
2023/09/22 09:55:14;;;;;;;16.58;12.38;;;22.70;64.30;;;;;;5010814;28;20037;-59
2023/09/22 09:57:44;;;;;;;13.90;9.63;;;22.60;64.30;;;;;;4998881;28;20410;-60
2023/09/22 10:00:21;;;;;;;10.50;7.38;;;22.70;64.00;;;;;;4984640;28;20568;-58
2023/09/22 10:02:48;;;;;;;8.07;6.78;;;22.70;63.80;;;;;;4985825;28;20058;-59
2023/09/22 10:05:23;;;;;;;8.60;7.15;;;22.70;63.70;;;;;;4988603;28;20030;-59
2023/09/22 10:07:50;;;;;;;7.57;6.43;;;22.70;64.10;;;;;;4976957;28;20031;-58
2023/09/22 10:10:18;;;;;;;6.35;5.75;;;22.70;64.00;;;;;;4983888;28;20121;-59
2023/09/22 10:12:45;;;;;;;6.47;5.80;;;22.70;64.10;;;;;;4988054;28;20125;-58
2023/09/22 10:15:12;;;;;;;7.20;6.50;;;22.80;64.30;;;;;;4957616;28;20048;-60
2023/09/22 10:18:00;;;;;;;7.03;5.95;;;22.80;64.60;;;;;;4989051;28;20747;-59
2023/09/22 10:20:47;;;;;;;8.18;5.82;;;22.80;64.40;;;;;;4989777;28;20057;-60
2023/09/22 10:23:22;;;;;;;8.10;6.32;;;22.80;63.90;;;;;;4968869;28;20026;-58
2023/09/22 10:26:14;;;;;;;8.13;5.95;;;22.80;64.40;;;;;;4983978;28;20152;-60
2023/09/22 10:28:40;;;;;;;6.47;5.38;;;22.90;64.30;;;;;;4986811;28;20061;-59
2023/09/22 10:31:05;;;;;;;6.35;5.35;;;22.80;63.90;;;;;;4989614;28;20034;-59
2023/09/22 10:33:32;;;;;;;6.30;5.70;;;22.90;63.40;;;;;;4989372;28;20027;-59
2023/09/22 10:35:58;;;;;;;6.38;5.40;;;22.90;63.70;;;;;;4981963;28;20608;-59
2023/09/22 10:38:25;;;;;;;5.70;5.10;;;22.90;63.60;;;;;;4984777;28;20053;-59
2023/09/22 10:41:05;;;;;;;10.27;6.28;;;22.90;63.70;;;;;;4986446;28;20041;-59
2023/09/22 10:43:36;;;;;;;7.88;5.32;;;22.90;63.80;;;;;;4988086;28;20030;-59
2023/09/22 10:46:02;;;;;;;7.00;5.38;;;22.90;64.00;;;;;;4986766;28;20062;-60
2023/09/22 10:48:34;;;;;;;6.82;5.50;;;22.90;64.00;;;;;;4984468;28;20034;-59
2023/09/22 10:51:01;;;;;;;9.07;6.15;;;22.90;64.10;;;;;;4987298;28;20359;-59
2023/09/22 10:53:26;;;;;;;7.47;6.40;;;22.90;64.90;;;;;;4986511;28;20362;-58
2023/09/22 10:55:57;;;;;;;8.32;6.50;;;22.90;66.00;;;;;;4997800;28;20030;-59
2023/09/22 10:58:26;;;;;;;6.60;5.85;;;23.00;66.50;;;;;;4985378;28;20042;-57
2023/09/22 11:01:04;;;;;;;7.95;6.07;;;23.00;65.70;;;;;;4994989;28;20608;-59
2023/09/22 11:03:32;;;;;;;7.45;6.10;;;23.00;64.70;;;;;;4995133;28;20125;-59
2023/09/22 11:06:06;;;;;;;6.28;5.43;;;22.90;64.50;;;;;;4987317;28;20029;-58
2023/09/22 11:08:33;;;;;;;8.60;6.10;;;23.00;64.30;;;;;;4990517;28;20038;-57
2023/09/22 11:10:59;;;;;;;6.50;5.90;;;23.00;64.60;;;;;;4986336;28;20045;-56
2023/09/22 11:13:26;;;;;;;8.70;6.10;;;23.00;64.70;;;;;;4989382;28;20034;-58
2023/09/22 11:15:57;;;;;;;7.18;5.75;;;23.00;64.90;;;;;;4988179;28;20085;-58
2023/09/22 11:18:33;;;;;;;8.20;5.78;;;23.00;64.70;;;;;;4990598;28;20082;-58
2023/09/22 11:21:09;;;;;;;13.40;6.32;;;23.00;64.60;;;;;;4983669;28;20037;-56
2023/09/22 11:23:38;;;;;;;7.82;6.43;;;23.00;64.50;;;;;;4990180;28;20082;-58
2023/09/22 11:26:07;;;;;;;8.20;6.32;;;23.00;65.40;;;;;;4986077;28;20057;-58
2023/09/22 11:28:33;;;;;;;7.80;6.35;;;23.00;65.50;;;;;;4995432;28;20219;-57
2023/09/22 11:31:15;;;;;;;10.52;6.85;;;23.00;65.60;;;;;;4998624;28;20034;-58
2023/09/22 11:33:58;;;;;;;8.20;6.30;;;23.00;65.90;;;;;;4990228;28;20494;-57
2023/09/22 11:36:23;;;;;;;8.35;6.88;;;23.00;66.60;;;;;;4992344;28;20053;-58
2023/09/22 11:38:53;;;;;;;10.93;7.10;;;22.90;67.10;;;;;;4991700;28;20078;-58
2023/09/22 11:41:21;;;;;;;9.38;7.20;;;23.00;67.70;;;;;;4986619;28;20030;-58
2023/09/22 11:43:49;;;;;;;8.02;7.05;;;22.90;67.70;;;;;;4984404;28;20041;-58
2023/09/22 11:46:18;;;;;;;8.10;6.68;;;22.90;67.70;;;;;;4990782;28;20383;-58
2023/09/22 11:48:58;;;;;;;9.15;7.43;;;22.90;67.30;;;;;;5001906;28;20497;-57
2023/09/22 11:51:42;;;;;;;7.95;6.53;;;22.90;67.50;;;;;;4992450;28;20114;-58
2023/09/22 11:54:13;;;;;;;8.52;6.97;;;22.90;67.60;;;;;;4989202;28;20715;-56
2023/09/22 11:56:40;;;;;;;10.93;7.88;;;22.90;67.80;;;;;;4987474;28;20046;-57
2023/09/22 11:59:18;;;;;;;10.52;7.70;;;22.90;68.50;;;;;;4988263;28;20042;-58
2023/09/22 12:01:45;;;;;;;10.02;8.07;;;22.90;68.90;;;;;;4980097;28;20140;-58
2023/09/22 12:04:12;;;;;;;10.38;7.82;;;22.80;69.20;;;;;;4984424;28;20038;-57
2023/09/22 12:06:40;;;;;;;10.32;8.05;;;22.80;69.20;;;;;;4985679;28;20050;-56
2023/09/22 12:09:12;;;;;;;8.82;7.57;;;22.80;69.10;;;;;;4981191;28;20030;-58
2023/09/22 12:11:39;;;;;;;9.30;8.18;;;22.80;68.90;;;;;;4981126;28;20569;-58
2023/09/22 12:14:06;;;;;;;10.55;7.72;;;22.80;69.20;;;;;;4989173;28;20106;-57
2023/09/22 12:16:32;;;;;;;11.32;8.02;;;22.70;69.40;;;;;;4990520;28;20038;-58
2023/09/22 12:18:58;;;;;;;9.70;7.65;;;22.80;70.10;;;;;;4991427;28;20031;-58
2023/09/22 12:21:27;;;;;;;8.63;7.53;;;22.80;70.10;;;;;;4996025;28;20037;-58
2023/09/22 12:23:53;;;;;;;11.82;7.88;;;22.80;69.80;;;;;;4984450;28;20156;-56
2023/09/22 12:26:18;;;;;;;9.25;8.15;;;22.80;70.00;;;;;;4987898;28;20115;-58
2023/09/22 12:28:44;;;;;;;7.97;7.07;;;22.80;71.00;;;;;;4989709;28;20062;-57
2023/09/22 12:31:10;;;;;;;9.63;7.30;;;22.80;70.80;;;;;;4993515;28;20037;-56
2023/09/22 12:33:37;;;;;;;9.43;7.18;;;22.80;70.30;;;;;;4991959;28;20037;-57
2023/09/22 12:36:02;;;;;;;7.53;6.00;;;22.80;70.20;;;;;;4990294;28;20073;-57
2023/09/22 12:38:28;;;;;;;8.18;7.00;;;22.80;70.10;;;;;;4998865;28;20065;-58
2023/09/22 12:40:54;;;;;;;8.35;7.40;;;22.90;70.40;;;;;;4982068;28;20031;-58
2023/09/22 12:43:20;;;;;;;7.90;6.75;;;22.90;70.60;;;;;;4979600;28;20034;-57